createdAt,value
2023-02-12T00:00:37.592Z,0.00
2023-02-12T00:01:37.567Z,0.00
2023-02-12T00:02:37.592Z,0.00
2023-02-12T00:03:37.641Z,0.00
2023-02-12T00:04:37.530Z,0.00
2023-02-12T00:05:37.543Z,0.00
2023-02-12T00:06:37.531Z,0.00
2023-02-12T00:07:40.492Z,0.00
2023-02-12T00:08:40.489Z,0.00
2023-02-12T00:09:37.460Z,0.00
2023-02-12T00:10:37.452Z,0.00
2023-02-12T00:11:37.482Z,0.00
2023-02-12T00:12:37.421Z,0.00
2023-02-12T00:13:37.406Z,0.00
2023-02-12T00:14:37.413Z,0.00
2023-02-12T00:15:37.401Z,0.00
2023-02-12T00:16:37.362Z,0.00
2023-02-12T00:17:37.373Z,0.00
2023-02-12T00:18:37.350Z,0.00
2023-02-12T00:19:37.370Z,0.00
2023-02-12T00:20:37.330Z,0.00
2023-02-12T00:21:37.293Z,0.00
2023-02-12T00:22:37.281Z,0.00
2023-02-12T00:23:37.273Z,0.00
2023-02-12T00:24:37.260Z,0.00
2023-02-12T00:25:37.271Z,0.00
2023-02-12T00:26:37.256Z,0.00
2023-02-12T00:27:40.211Z,0.00
2023-02-12T00:28:40.286Z,0.00
2023-02-12T00:29:37.236Z,0.00
2023-02-12T00:30:37.219Z,0.00
2023-02-12T00:31:37.169Z,0.00
2023-02-12T00:32:37.149Z,0.00
2023-02-12T00:33:37.124Z,0.00
2023-02-12T00:34:37.116Z,0.00
2023-02-12T00:35:37.150Z,0.00
2023-02-12T00:36:37.086Z,0.00
2023-02-12T00:37:37.067Z,0.00
2023-02-12T00:38:37.058Z,0.00
2023-02-12T00:39:37.068Z,0.00
2023-02-12T00:40:37.087Z,0.00
2023-02-12T00:41:37.021Z,0.00
2023-02-12T00:42:37.007Z,0.00
2023-02-12T00:43:36.994Z,0.00
2023-02-12T00:44:36.982Z,0.00
2023-02-12T00:45:36.961Z,0.00
2023-02-12T00:46:37.021Z,0.00
2023-02-12T00:47:39.932Z,0.00
2023-02-12T00:48:39.937Z,0.00
2023-02-12T00:49:36.912Z,0.00
2023-02-12T00:50:36.899Z,0.00
2023-02-12T00:51:36.879Z,0.00
2023-02-12T00:52:36.893Z,0.00
2023-02-12T00:53:36.852Z,0.00
2023-02-12T00:54:36.841Z,0.00
2023-02-12T00:55:36.820Z,0.00
2023-02-12T00:56:36.825Z,0.00
2023-02-12T00:57:36.851Z,0.00
2023-02-12T00:58:36.787Z,0.00
2023-02-12T00:59:36.776Z,0.00
2023-02-12T01:00:36.761Z,0.00
2023-02-12T01:01:36.763Z,0.00
2023-02-12T01:02:36.723Z,0.00
2023-02-12T01:03:36.749Z,0.00
2023-02-12T01:04:36.742Z,0.00
2023-02-12T01:05:36.694Z,0.00
2023-02-12T01:06:36.746Z,0.00
2023-02-12T01:07:39.656Z,0.00
2023-02-12T01:08:39.665Z,0.00
2023-02-12T01:09:36.639Z,0.00
2023-02-12T01:10:36.627Z,0.00
2023-02-12T01:11:36.609Z,0.00
2023-02-12T01:12:36.628Z,0.00
2023-02-12T01:13:36.577Z,0.00
2023-02-12T01:14:36.570Z,0.00
2023-02-12T01:15:36.585Z,0.00
2023-02-12T01:16:36.787Z,0.00
2023-02-12T01:17:36.581Z,0.00
2023-02-12T01:18:36.536Z,0.00
2023-02-12T01:19:36.493Z,0.00
2023-02-12T01:20:36.500Z,0.00
2023-02-12T01:21:36.476Z,0.00
2023-02-12T01:22:36.459Z,0.00
2023-02-12T01:23:36.472Z,0.00
2023-02-12T01:24:36.454Z,0.00
2023-02-12T01:25:36.413Z,0.00
2023-02-12T01:26:36.431Z,0.00
2023-02-12T01:27:39.385Z,0.00
2023-02-12T01:28:39.385Z,0.00
2023-02-12T01:29:36.385Z,0.00
2023-02-12T01:30:36.355Z,0.00
2023-02-12T01:31:36.457Z,0.00
2023-02-12T01:32:36.325Z,0.00
2023-02-12T01:33:36.343Z,0.00
2023-02-12T01:34:36.318Z,0.00
2023-02-12T01:35:36.305Z,0.00
2023-02-12T01:36:36.268Z,0.00
2023-02-12T01:37:36.246Z,0.00
2023-02-12T01:38:36.245Z,0.00
2023-02-12T01:39:36.246Z,0.00
2023-02-12T01:40:36.216Z,0.00
2023-02-12T01:41:36.194Z,0.00
2023-02-12T01:42:36.199Z,0.00
2023-02-12T01:43:36.168Z,0.00
2023-02-12T01:44:36.208Z,0.00
2023-02-12T01:45:36.139Z,0.00
2023-02-12T01:46:36.170Z,0.00
2023-02-12T01:47:39.113Z,0.00
2023-02-12T01:48:39.108Z,0.00
2023-02-12T01:49:36.094Z,0.00
2023-02-12T01:50:36.100Z,0.00
2023-02-12T01:51:36.057Z,0.00
2023-02-12T01:52:36.048Z,0.00
2023-02-12T01:53:36.035Z,0.00
2023-02-12T01:54:36.019Z,0.00
2023-02-12T01:55:36.038Z,0.00
2023-02-12T01:56:35.993Z,0.00
2023-02-12T01:57:35.972Z,0.00
2023-02-12T01:58:35.961Z,0.00
2023-02-12T01:59:35.942Z,0.00
2023-02-12T02:00:35.960Z,0.00
2023-02-12T02:01:36.038Z,0.00
2023-02-12T02:02:35.902Z,0.00
2023-02-12T02:03:35.954Z,0.00
2023-02-12T02:04:35.875Z,0.00
2023-02-12T02:05:35.888Z,0.00
2023-02-12T02:06:35.874Z,0.00
2023-02-12T02:07:38.835Z,0.00
2023-02-12T02:08:38.843Z,0.00
2023-02-12T02:09:35.815Z,0.00
2023-02-12T02:10:35.799Z,0.00
2023-02-12T02:11:35.803Z,0.00
2023-02-12T02:12:35.794Z,0.00
2023-02-12T02:13:35.753Z,0.00
2023-02-12T02:14:35.745Z,0.00
2023-02-12T02:15:35.728Z,0.00
2023-02-12T02:16:35.733Z,0.00
2023-02-12T02:17:35.729Z,0.00
2023-02-12T02:18:35.683Z,0.00
2023-02-12T02:19:35.673Z,0.00
2023-02-12T02:20:35.656Z,0.00
2023-02-12T02:21:35.647Z,0.00
2023-02-12T02:22:35.666Z,0.00
2023-02-12T02:23:35.612Z,0.00
2023-02-12T02:24:35.608Z,0.00
2023-02-12T02:25:35.583Z,0.00
2023-02-12T02:26:35.587Z,0.00
2023-02-12T02:27:38.667Z,0.00
2023-02-12T02:28:38.618Z,0.00
2023-02-12T02:29:35.534Z,0.00
2023-02-12T02:30:35.533Z,0.00
2023-02-12T02:31:35.647Z,0.00
2023-02-12T02:32:35.484Z,0.00
2023-02-12T02:33:35.526Z,0.00
2023-02-12T02:34:35.456Z,0.00
2023-02-12T02:35:35.444Z,0.00
2023-02-12T02:36:35.428Z,0.00
2023-02-12T02:37:35.414Z,0.00
2023-02-12T02:38:35.411Z,0.00
2023-02-12T02:39:35.412Z,0.00
2023-02-12T02:40:35.402Z,0.00
2023-02-12T02:41:35.365Z,0.00
2023-02-12T02:42:35.351Z,0.00
2023-02-12T02:43:35.340Z,0.00
2023-02-12T02:44:35.320Z,0.00
2023-02-12T02:45:35.344Z,0.00
2023-02-12T02:46:35.364Z,0.00
2023-02-12T02:47:38.279Z,0.00
2023-02-12T02:48:38.277Z,0.00
2023-02-12T02:49:35.247Z,0.00
2023-02-12T02:50:35.270Z,0.00
2023-02-12T02:51:35.218Z,0.00
2023-02-12T02:52:35.266Z,0.00
2023-02-12T02:53:35.205Z,0.00
2023-02-12T02:54:35.181Z,0.00
2023-02-12T02:55:35.172Z,0.00
2023-02-12T02:56:35.153Z,0.00
2023-02-12T02:57:35.139Z,0.00
2023-02-12T02:58:35.161Z,0.00
2023-02-12T02:59:35.118Z,0.00
2023-02-12T03:00:35.125Z,0.00
2023-02-12T03:01:35.083Z,0.00
2023-02-12T03:02:35.167Z,0.00
2023-02-12T03:03:35.053Z,0.00
2023-02-12T03:04:35.053Z,0.00
2023-02-12T03:05:35.034Z,0.00
2023-02-12T03:06:35.017Z,0.00
2023-02-12T03:07:38.039Z,0.00
2023-02-12T03:08:38.006Z,0.00
2023-02-12T03:09:34.973Z,0.00
2023-02-12T03:10:34.971Z,0.00
2023-02-12T03:11:34.963Z,0.00
2023-02-12T03:12:34.926Z,0.00
2023-02-12T03:13:34.949Z,0.00
2023-02-12T03:14:34.902Z,0.00
2023-02-12T03:15:34.893Z,0.00
2023-02-12T03:16:35.002Z,0.00
2023-02-12T03:17:34.886Z,0.00
2023-02-12T03:18:34.850Z,0.00
2023-02-12T03:19:34.844Z,0.00
2023-02-12T03:20:34.827Z,0.00
2023-02-12T03:21:34.807Z,0.00
2023-02-12T03:22:34.829Z,0.00
2023-02-12T03:23:34.814Z,0.00
2023-02-12T03:24:34.788Z,0.00
2023-02-12T03:25:34.758Z,0.00
2023-02-12T03:26:34.744Z,0.00
2023-02-12T03:27:37.729Z,0.00
2023-02-12T03:28:37.843Z,0.00
2023-02-12T03:29:34.750Z,0.00
2023-02-12T03:30:34.712Z,0.00
2023-02-12T03:31:34.705Z,0.00
2023-02-12T03:32:34.662Z,0.00
2023-02-12T03:33:34.650Z,0.00
2023-02-12T03:34:34.634Z,0.00
2023-02-12T03:35:34.649Z,0.00
2023-02-12T03:36:34.601Z,0.00
2023-02-12T03:37:34.593Z,0.00
2023-02-12T03:38:34.578Z,0.00
2023-02-12T03:39:34.564Z,0.00
2023-02-12T03:40:34.574Z,0.00
2023-02-12T03:41:34.535Z,0.00
2023-02-12T03:42:34.555Z,0.00
2023-02-12T03:43:34.514Z,0.00
2023-02-12T03:44:34.486Z,0.00
2023-02-12T03:45:34.564Z,0.00
2023-02-12T03:46:34.500Z,0.00
2023-02-12T03:47:37.460Z,0.00
2023-02-12T03:48:37.488Z,0.00
2023-02-12T03:49:34.431Z,0.00
2023-02-12T03:50:34.437Z,0.00
2023-02-12T03:51:34.434Z,0.00
2023-02-12T03:52:34.389Z,0.00
2023-02-12T03:53:34.376Z,0.00
2023-02-12T03:54:34.360Z,0.00
2023-02-12T03:55:34.365Z,0.00
2023-02-12T03:56:34.330Z,0.00
2023-02-12T03:57:34.317Z,0.00
2023-02-12T03:58:34.302Z,0.00
2023-02-12T03:59:34.294Z,0.00
2023-02-12T04:00:34.303Z,0.00
2023-02-12T04:01:34.423Z,0.00
2023-02-12T04:02:34.252Z,0.00
2023-02-12T04:03:34.227Z,0.00
2023-02-12T04:04:34.247Z,0.00
2023-02-12T04:05:34.227Z,0.00
2023-02-12T04:06:34.186Z,0.00
2023-02-12T04:07:37.175Z,0.00
2023-02-12T04:08:37.195Z,0.00
2023-02-12T04:09:34.170Z,0.00
2023-02-12T04:10:34.127Z,0.00
2023-02-12T04:11:34.116Z,0.00
2023-02-12T04:12:34.096Z,0.00
2023-02-12T04:13:34.122Z,0.00
2023-02-12T04:14:34.072Z,0.00
2023-02-12T04:15:34.068Z,0.00
2023-02-12T04:16:36.320Z,0.00
2023-02-12T04:17:34.039Z,0.00
2023-02-12T04:18:34.035Z,0.00
2023-02-12T04:19:34.038Z,0.00
2023-02-12T04:20:33.985Z,0.00
2023-02-12T04:21:34.012Z,0.00
2023-02-12T04:22:33.998Z,0.00
2023-02-12T04:23:33.966Z,0.00
2023-02-12T04:24:33.936Z,0.00
2023-02-12T04:25:33.927Z,0.00
2023-02-12T04:26:33.907Z,0.00
2023-02-12T04:27:36.952Z,0.00
2023-02-12T04:28:36.947Z,0.00
2023-02-12T04:29:33.875Z,0.00
2023-02-12T04:30:33.955Z,0.00
2023-02-12T04:31:33.989Z,0.00
2023-02-12T04:32:33.831Z,0.00
2023-02-12T04:33:33.882Z,0.00
2023-02-12T04:34:33.813Z,0.00
2023-02-12T04:35:33.795Z,0.00
2023-02-12T04:36:33.775Z,0.00
2023-02-12T04:37:33.763Z,0.00
2023-02-12T04:38:33.749Z,0.00
2023-02-12T04:39:33.764Z,0.00
2023-02-12T04:40:33.728Z,0.00
2023-02-12T04:41:33.719Z,0.00
2023-02-12T04:42:33.688Z,0.00
2023-02-12T04:43:36.316Z,0.00
2023-02-12T04:44:33.685Z,0.00
2023-02-12T04:45:33.658Z,0.00
2023-02-12T04:46:33.761Z,0.00
2023-02-12T04:47:36.629Z,0.00
2023-02-12T04:48:36.649Z,0.00
2023-02-12T04:49:33.600Z,0.00
2023-02-12T04:50:36.806Z,0.00
2023-02-12T04:51:33.573Z,0.00
2023-02-12T04:52:33.595Z,0.00
2023-02-12T04:53:33.541Z,0.00
2023-02-12T04:54:33.531Z,0.00
2023-02-12T04:55:33.519Z,0.00
2023-02-12T04:56:33.506Z,0.00
2023-02-12T04:57:33.488Z,0.00
2023-02-12T04:58:33.539Z,0.00
2023-02-12T04:59:33.468Z,0.00
2023-02-12T05:00:33.443Z,0.00
2023-02-12T05:01:33.478Z,0.00
2023-02-12T05:02:33.414Z,0.00
2023-02-12T05:03:33.417Z,0.00
2023-02-12T05:04:33.417Z,0.00
2023-02-12T05:05:33.375Z,0.00
2023-02-12T05:06:33.359Z,0.00
2023-02-12T05:07:36.355Z,0.00
2023-02-12T05:08:36.355Z,0.00
2023-02-12T05:09:33.357Z,0.00
2023-02-12T05:10:33.306Z,0.00
2023-02-12T05:11:33.308Z,0.00
2023-02-12T05:12:33.276Z,0.00
2023-02-12T05:13:33.282Z,0.00
2023-02-12T05:14:33.275Z,0.00
2023-02-12T05:15:33.286Z,0.00
2023-02-12T05:16:33.234Z,0.00
2023-02-12T05:17:33.249Z,0.00
2023-02-12T05:18:33.198Z,0.00
2023-02-12T05:19:33.186Z,0.00
2023-02-12T05:20:33.184Z,0.00
2023-02-12T05:21:33.157Z,0.00
2023-02-12T05:22:33.144Z,0.00
2023-02-12T05:23:33.160Z,0.00
2023-02-12T05:24:33.135Z,0.00
2023-02-12T05:25:33.098Z,0.00
2023-02-12T05:26:33.088Z,0.00
2023-02-12T05:27:36.074Z,0.00
2023-02-12T05:28:36.181Z,0.00
2023-02-12T05:29:33.049Z,0.00
2023-02-12T05:30:33.037Z,0.00
2023-02-12T05:31:33.194Z,0.00
2023-02-12T05:32:33.000Z,0.00
2023-02-12T05:33:33.003Z,0.00
2023-02-12T05:34:33.000Z,0.00
2023-02-12T05:35:33.002Z,0.00
2023-02-12T05:36:32.953Z,0.00
2023-02-12T05:37:32.940Z,0.00
2023-02-12T05:38:32.923Z,0.00
2023-02-12T05:39:32.911Z,0.00
2023-02-12T05:40:32.903Z,0.00
2023-02-12T05:41:32.932Z,0.00
2023-02-12T05:42:32.860Z,0.00
2023-02-12T05:43:32.855Z,0.00
2023-02-12T05:44:32.842Z,0.00
2023-02-12T05:45:32.825Z,0.00
2023-02-12T05:46:32.865Z,0.00
2023-02-12T05:47:35.836Z,0.00
2023-02-12T05:48:35.800Z,0.00
2023-02-12T05:49:32.773Z,0.00
2023-02-12T05:50:32.751Z,0.00
2023-02-12T05:51:32.748Z,0.00
2023-02-12T05:52:32.731Z,0.00
2023-02-12T05:53:32.772Z,0.00
2023-02-12T05:54:32.704Z,0.00
2023-02-12T05:55:32.683Z,0.00
2023-02-12T05:56:32.688Z,0.00
2023-02-12T05:57:32.657Z,0.00
2023-02-12T05:58:32.641Z,0.00
2023-02-12T05:59:32.657Z,0.00
2023-02-12T06:00:32.613Z,0.00
2023-02-12T06:01:32.626Z,0.00
2023-02-12T06:02:32.679Z,0.00
2023-02-12T06:03:32.582Z,0.00
2023-02-12T06:04:32.562Z,0.00
2023-02-12T06:05:32.543Z,0.00
2023-02-12T06:06:32.545Z,0.00
2023-02-12T06:07:35.584Z,0.00
2023-02-12T06:08:35.514Z,0.00
2023-02-12T06:09:32.493Z,0.00
2023-02-12T06:10:32.485Z,0.00
2023-02-12T06:11:32.462Z,0.00
2023-02-12T06:12:32.456Z,0.00
2023-02-12T06:13:32.455Z,0.00
2023-02-12T06:14:32.424Z,0.00
2023-02-12T06:15:32.406Z,0.00
2023-02-12T06:16:32.475Z,0.00
2023-02-12T06:17:32.416Z,0.00
2023-02-12T06:18:32.366Z,0.00
2023-02-12T06:19:32.356Z,0.00
2023-02-12T06:20:32.346Z,0.00
2023-02-12T06:21:32.330Z,0.00
2023-02-12T06:22:32.316Z,0.00
2023-02-12T06:23:32.326Z,0.00
2023-02-12T06:24:32.288Z,0.00
2023-02-12T06:25:32.271Z,0.00
2023-02-12T06:26:32.260Z,0.00
2023-02-12T06:27:35.240Z,0.00
2023-02-12T06:28:35.331Z,0.00
2023-02-12T06:29:32.218Z,0.00
2023-02-12T06:30:32.205Z,0.00
2023-02-12T06:31:32.360Z,0.00
2023-02-12T06:32:32.182Z,0.00
2023-02-12T06:33:32.160Z,0.00
2023-02-12T06:34:32.144Z,0.00
2023-02-12T06:35:32.132Z,0.00
2023-02-12T06:36:32.137Z,0.00
2023-02-12T06:37:32.165Z,0.00
2023-02-12T06:38:32.095Z,0.00
2023-02-12T06:39:32.085Z,0.00
2023-02-12T06:40:32.076Z,0.00
2023-02-12T06:41:32.068Z,0.00
2023-02-12T06:42:33.185Z,0.00
2023-02-12T06:43:32.059Z,0.00
2023-02-12T06:44:32.014Z,0.00
2023-02-12T06:45:32.008Z,0.00
2023-02-12T06:46:32.038Z,0.00
2023-02-12T06:47:34.968Z,0.00
2023-02-12T06:48:35.030Z,0.00
2023-02-12T06:49:31.958Z,0.00
2023-02-12T06:50:31.935Z,0.00
2023-02-12T06:51:38.927Z,0.00
2023-02-12T06:52:31.909Z,0.00
2023-02-12T06:53:31.889Z,0.00
2023-02-12T06:54:31.908Z,0.00
2023-02-12T06:55:31.867Z,0.00
2023-02-12T06:56:31.851Z,0.00
2023-02-12T06:57:31.886Z,0.00
2023-02-12T06:58:31.832Z,0.00
2023-02-12T06:59:31.810Z,0.00
2023-02-12T07:00:31.945Z,0.00
2023-02-12T07:01:31.781Z,0.00
2023-02-12T07:02:31.773Z,0.00
2023-02-12T07:03:31.804Z,5.62
2023-02-12T07:04:31.740Z,5.62
2023-02-12T07:05:31.722Z,5.62
2023-02-12T07:06:31.785Z,5.62
2023-02-12T07:07:34.712Z,5.62
2023-02-12T07:08:34.706Z,5.62
2023-02-12T07:09:31.683Z,5.62
2023-02-12T07:10:31.663Z,5.62
2023-02-12T07:11:31.658Z,5.62
2023-02-12T07:12:31.653Z,5.62
2023-02-12T07:13:31.635Z,5.62
2023-02-12T07:14:31.639Z,5.62
2023-02-12T07:15:31.627Z,5.62
2023-02-12T07:16:31.671Z,5.62
2023-02-12T07:17:31.568Z,5.62
2023-02-12T07:18:31.550Z,5.62
2023-02-12T07:19:31.541Z,5.62
2023-02-12T07:20:31.527Z,5.62
2023-02-12T07:21:31.535Z,11.25
2023-02-12T07:22:31.496Z,11.25
2023-02-12T07:23:31.491Z,11.25
2023-02-12T07:24:31.505Z,11.25
2023-02-12T07:25:31.460Z,11.25
2023-02-12T07:26:31.468Z,11.25
2023-02-12T07:27:34.425Z,11.25
2023-02-12T07:28:34.504Z,11.25
2023-02-12T07:29:31.406Z,11.25
2023-02-12T07:30:31.627Z,11.25
2023-02-12T07:31:31.490Z,11.25
2023-02-12T07:32:31.364Z,11.25
2023-02-12T07:33:31.340Z,11.25
2023-02-12T07:34:31.335Z,11.25
2023-02-12T07:35:31.336Z,11.25
2023-02-12T07:36:31.339Z,11.25
2023-02-12T07:37:31.284Z,11.25
2023-02-12T07:38:31.272Z,11.25
2023-02-12T07:39:31.272Z,16.88
2023-02-12T07:40:31.249Z,16.88
2023-02-12T07:41:31.241Z,16.88
2023-02-12T07:42:31.240Z,16.88
2023-02-12T07:43:31.210Z,16.88
2023-02-12T07:44:31.192Z,16.88
2023-02-12T07:45:31.286Z,16.88
2023-02-12T07:46:31.172Z,16.88
2023-02-12T07:47:34.338Z,16.88
2023-02-12T07:48:34.154Z,16.88
2023-02-12T07:49:31.172Z,16.88
2023-02-12T07:50:31.112Z,22.50
2023-02-12T07:51:31.092Z,22.50
2023-02-12T07:52:31.084Z,22.50
2023-02-12T07:53:31.114Z,22.50
2023-02-12T07:54:31.061Z,22.50
2023-02-12T07:55:31.042Z,22.50
2023-02-12T07:56:31.072Z,22.50
2023-02-12T07:57:31.020Z,22.50
2023-02-12T07:58:31.002Z,28.12
2023-02-12T07:59:31.021Z,28.12
2023-02-12T08:00:30.973Z,28.12
2023-02-12T08:01:30.967Z,28.12
2023-02-12T08:02:30.978Z,28.12
2023-02-12T08:03:30.988Z,33.75
2023-02-12T08:04:30.987Z,33.75
2023-02-12T08:05:30.899Z,33.75
2023-02-12T08:06:30.895Z,28.12
2023-02-12T08:07:33.889Z,28.12
2023-02-12T08:08:33.933Z,28.12
2023-02-12T08:09:30.968Z,28.12
2023-02-12T08:10:32.493Z,28.12
2023-02-12T08:11:30.819Z,28.12
2023-02-12T08:12:30.817Z,28.12
2023-02-12T08:13:30.789Z,28.12
2023-02-12T08:14:30.808Z,28.12
2023-02-12T08:15:30.758Z,33.75
2023-02-12T08:16:30.827Z,33.75
2023-02-12T08:17:30.741Z,33.75
2023-02-12T08:18:30.729Z,33.75
2023-02-12T08:19:30.751Z,33.75
2023-02-12T08:20:30.699Z,39.38
2023-02-12T08:21:30.680Z,39.38
2023-02-12T08:22:30.707Z,39.38
2023-02-12T08:23:30.660Z,39.38
2023-02-12T08:24:30.678Z,45.00
2023-02-12T08:25:30.684Z,45.00
2023-02-12T08:26:30.622Z,45.00
2023-02-12T08:27:33.602Z,45.00
2023-02-12T08:28:33.657Z,50.62
2023-02-12T08:29:30.578Z,50.62
2023-02-12T08:30:30.585Z,50.62
2023-02-12T08:31:30.574Z,50.62
2023-02-12T08:32:30.536Z,50.62
2023-02-12T08:33:30.518Z,50.62
2023-02-12T08:34:30.538Z,50.62
2023-02-12T08:35:30.493Z,50.62
2023-02-12T08:36:30.503Z,50.62
2023-02-12T08:37:30.464Z,45.00
2023-02-12T08:38:30.454Z,45.00
2023-02-12T08:39:30.524Z,45.00
2023-02-12T08:40:30.446Z,45.00
2023-02-12T08:41:30.413Z,45.00
2023-02-12T08:42:30.398Z,39.38
2023-02-12T08:43:30.385Z,39.38
2023-02-12T08:44:30.373Z,39.38
2023-02-12T08:45:30.416Z,39.38
2023-02-12T08:46:30.397Z,39.38
2023-02-12T08:47:33.338Z,45.00
2023-02-12T08:48:33.333Z,45.00
2023-02-12T08:49:30.298Z,45.00
2023-02-12T08:50:30.282Z,45.00
2023-02-12T08:51:30.304Z,50.62
2023-02-12T08:52:30.265Z,45.00
2023-02-12T08:53:30.233Z,45.00
2023-02-12T08:54:30.228Z,45.00
2023-02-12T08:55:30.215Z,45.00
2023-02-12T08:56:30.200Z,50.62
2023-02-12T08:57:30.224Z,45.00
2023-02-12T08:58:30.166Z,45.00
2023-02-12T08:59:30.153Z,45.00
2023-02-12T09:00:30.141Z,45.00
2023-02-12T09:01:30.225Z,50.62
2023-02-12T09:02:30.175Z,45.00
2023-02-12T09:03:30.096Z,45.00
2023-02-12T09:04:30.086Z,45.00
2023-02-12T09:05:30.077Z,45.00
2023-02-12T09:06:30.085Z,45.00
2023-02-12T09:07:33.066Z,50.62
2023-02-12T09:08:33.046Z,50.62
2023-02-12T09:09:30.017Z,56.25
2023-02-12T09:10:29.995Z,56.25
2023-02-12T09:11:30.007Z,56.25
2023-02-12T09:12:29.975Z,56.25
2023-02-12T09:13:29.957Z,56.25
2023-02-12T09:14:29.978Z,61.88
2023-02-12T09:15:29.942Z,61.88
2023-02-12T09:16:29.987Z,61.88
2023-02-12T09:17:29.906Z,61.88
2023-02-12T09:18:29.915Z,67.50
2023-02-12T09:19:29.879Z,73.12
2023-02-12T09:20:29.858Z,67.50
2023-02-12T09:21:29.846Z,61.88
2023-02-12T09:22:29.873Z,61.88
2023-02-12T09:23:29.823Z,61.88
2023-02-12T09:24:29.808Z,67.50
2023-02-12T09:25:29.799Z,67.50
2023-02-12T09:26:29.792Z,67.50
2023-02-12T09:27:32.789Z,67.50
2023-02-12T09:28:32.913Z,61.88
2023-02-12T09:29:29.750Z,61.88
2023-02-12T09:30:29.727Z,61.88
2023-02-12T09:31:29.837Z,61.88
2023-02-12T09:32:29.844Z,56.25
2023-02-12T09:33:29.681Z,50.62
2023-02-12T09:34:29.675Z,50.62
2023-02-12T09:35:29.655Z,50.62
2023-02-12T09:36:29.642Z,45.00
2023-02-12T09:37:29.648Z,45.00
2023-02-12T09:38:29.653Z,45.00
2023-02-12T09:39:29.638Z,45.00
2023-02-12T09:40:29.607Z,45.00
2023-02-12T09:41:29.581Z,45.00
2023-02-12T09:42:29.562Z,45.00
2023-02-12T09:43:29.544Z,50.62
2023-02-12T09:44:29.565Z,45.00
2023-02-12T09:45:29.523Z,45.00
2023-02-12T09:46:29.529Z,45.00
2023-02-12T09:47:32.511Z,45.00
2023-02-12T09:48:32.488Z,45.00
2023-02-12T09:49:29.486Z,45.00
2023-02-12T09:50:29.477Z,45.00
2023-02-12T09:51:29.435Z,50.62
2023-02-12T09:52:29.426Z,50.62
2023-02-12T09:53:29.413Z,50.62
2023-02-12T09:54:29.389Z,45.00
2023-02-12T09:55:29.408Z,50.62
2023-02-12T09:56:29.388Z,50.62
2023-02-12T09:57:29.363Z,50.62
2023-02-12T09:58:29.343Z,50.62
2023-02-12T09:59:29.324Z,50.62
2023-02-12T10:00:29.345Z,45.00
2023-02-12T10:01:29.320Z,45.00
2023-02-12T10:02:29.288Z,45.00
2023-02-12T10:03:29.274Z,45.00
2023-02-12T10:04:29.389Z,45.00
2023-02-12T10:05:29.276Z,45.00
2023-02-12T10:06:29.235Z,45.00
2023-02-12T10:07:32.218Z,45.00
2023-02-12T10:08:32.223Z,45.00
2023-02-12T10:09:29.193Z,45.00
2023-02-12T10:10:29.205Z,45.00
2023-02-12T10:11:29.166Z,45.00
2023-02-12T10:12:29.149Z,45.00
2023-02-12T10:13:29.172Z,45.00
2023-02-12T10:14:29.118Z,45.00
2023-02-12T10:15:29.171Z,50.62
2023-02-12T10:16:29.123Z,50.62
2023-02-12T10:17:29.084Z,56.25
2023-02-12T10:18:29.080Z,67.50
2023-02-12T10:19:29.053Z,67.50
2023-02-12T10:20:29.050Z,61.88
2023-02-12T10:21:29.081Z,56.25
2023-02-12T10:22:29.016Z,56.25
2023-02-12T10:23:28.993Z,56.25
2023-02-12T10:24:28.985Z,61.88
2023-02-12T10:25:28.991Z,61.88
2023-02-12T10:26:28.955Z,61.88
2023-02-12T10:27:31.985Z,61.88
2023-02-12T10:28:32.045Z,67.50
2023-02-12T10:29:28.946Z,73.12
2023-02-12T10:30:28.893Z,67.50
2023-02-12T10:31:30.361Z,61.88
2023-02-12T10:32:28.908Z,61.88
2023-02-12T10:33:28.871Z,61.88
2023-02-12T10:34:28.873Z,61.88
2023-02-12T10:35:28.833Z,61.88
2023-02-12T10:36:28.814Z,61.88
2023-02-12T10:37:28.810Z,61.88
2023-02-12T10:38:28.800Z,67.50
2023-02-12T10:39:28.830Z,67.50
2023-02-12T10:40:28.759Z,73.12
2023-02-12T10:41:28.746Z,73.12
2023-02-12T10:42:28.736Z,78.75
2023-02-12T10:43:28.711Z,73.12
2023-02-12T10:44:28.699Z,78.75
2023-02-12T10:45:28.710Z,73.12
2023-02-12T10:46:28.735Z,73.12
2023-02-12T10:47:31.651Z,78.75
2023-02-12T10:48:31.652Z,78.75
2023-02-12T10:49:28.632Z,78.75
2023-02-12T10:50:28.648Z,78.75
2023-02-12T10:51:28.604Z,78.75
2023-02-12T10:52:28.595Z,78.75
2023-02-12T10:53:28.604Z,78.75
2023-02-12T10:54:28.552Z,78.75
2023-02-12T10:55:28.560Z,84.38
2023-02-12T10:56:28.576Z,78.75
2023-02-12T10:57:28.524Z,78.75
2023-02-12T10:58:28.561Z,73.12
2023-02-12T10:59:28.493Z,73.12
2023-02-12T11:00:28.478Z,67.50
2023-02-12T11:01:28.533Z,73.12
2023-02-12T11:02:28.451Z,73.12
2023-02-12T11:03:28.435Z,78.75
2023-02-12T11:04:28.415Z,78.75
2023-02-12T11:05:28.427Z,78.75
2023-02-12T11:06:28.454Z,84.38
2023-02-12T11:07:31.377Z,84.38
2023-02-12T11:08:31.390Z,95.62
2023-02-12T11:09:28.360Z,95.62
2023-02-12T11:10:28.337Z,90.00
2023-02-12T11:11:28.334Z,90.00
2023-02-12T11:12:28.337Z,95.62
2023-02-12T11:13:28.296Z,95.62
2023-02-12T11:14:28.281Z,90.00
2023-02-12T11:15:28.291Z,90.00
2023-02-12T11:16:28.289Z,95.62
2023-02-12T11:17:28.429Z,90.00
2023-02-12T11:18:28.235Z,95.62
2023-02-12T11:19:28.228Z,90.00
2023-02-12T11:20:28.199Z,90.00
2023-02-12T11:21:28.216Z,90.00
2023-02-12T11:22:28.178Z,90.00
2023-02-12T11:23:28.222Z,90.00
2023-02-12T11:24:28.151Z,90.00
2023-02-12T11:25:28.139Z,90.00
2023-02-12T11:26:28.126Z,84.38
2023-02-12T11:27:31.109Z,84.38
2023-02-12T11:28:31.316Z,78.75
2023-02-12T11:29:28.090Z,78.75
2023-02-12T11:30:28.069Z,73.12
2023-02-12T11:31:28.179Z,73.12
2023-02-12T11:32:28.039Z,73.12
2023-02-12T11:33:28.060Z,73.12
2023-02-12T11:34:28.044Z,73.12
2023-02-12T11:35:28.012Z,73.12
2023-02-12T11:36:28.004Z,73.12
2023-02-12T11:37:27.981Z,78.75
2023-02-12T11:38:27.998Z,73.12
2023-02-12T11:39:27.985Z,73.12
2023-02-12T11:40:27.945Z,78.75
2023-02-12T11:41:27.941Z,78.75
2023-02-12T11:42:27.917Z,78.75
2023-02-12T11:43:27.905Z,84.38
2023-02-12T11:44:27.952Z,84.38
2023-02-12T11:45:27.878Z,84.38
2023-02-12T11:46:28.038Z,78.75
2023-02-12T11:47:30.865Z,78.75
2023-02-12T11:48:30.861Z,78.75
2023-02-12T11:49:27.833Z,78.75
2023-02-12T11:50:27.851Z,73.12
2023-02-12T11:51:27.818Z,78.75
2023-02-12T11:52:27.791Z,73.12
2023-02-12T11:53:27.782Z,67.50
2023-02-12T11:54:27.788Z,73.12
2023-02-12T11:55:27.781Z,78.75
2023-02-12T11:56:27.744Z,84.38
2023-02-12T11:57:27.731Z,73.12
2023-02-12T11:58:27.711Z,67.50
2023-02-12T11:59:27.703Z,61.88
2023-02-12T12:00:27.740Z,61.88
2023-02-12T12:01:27.685Z,61.88
2023-02-12T12:02:27.656Z,61.88
2023-02-12T12:03:27.692Z,56.25
2023-02-12T12:04:27.634Z,61.88
2023-02-12T12:05:27.620Z,61.88
2023-02-12T12:06:27.661Z,61.88
2023-02-12T12:07:30.594Z,61.88
2023-02-12T12:08:30.606Z,61.88
2023-02-12T12:09:27.593Z,61.88
2023-02-12T12:10:27.554Z,61.88
2023-02-12T12:11:27.542Z,67.50
2023-02-12T12:12:27.552Z,67.50
2023-02-12T12:13:27.512Z,67.50
2023-02-12T12:14:27.493Z,67.50
2023-02-12T12:15:27.484Z,61.88
2023-02-12T12:16:27.610Z,61.88
2023-02-12T12:17:27.487Z,67.50
2023-02-12T12:18:27.444Z,67.50
2023-02-12T12:19:29.103Z,67.50
2023-02-12T12:20:27.414Z,67.50
2023-02-12T12:21:27.459Z,61.88
2023-02-12T12:22:27.434Z,61.88
2023-02-12T12:23:27.385Z,61.88
2023-02-12T12:24:27.368Z,67.50
2023-02-12T12:25:27.366Z,67.50
2023-02-12T12:26:27.336Z,73.12
2023-02-12T12:27:30.379Z,78.75
2023-02-12T12:28:30.406Z,78.75
2023-02-12T12:29:27.339Z,78.75
2023-02-12T12:30:27.305Z,78.75
2023-02-12T12:31:27.330Z,78.75
2023-02-12T12:32:27.257Z,73.12
2023-02-12T12:33:27.297Z,73.12
2023-02-12T12:34:27.242Z,78.75
2023-02-12T12:35:27.226Z,78.75
2023-02-12T12:36:27.208Z,78.75
2023-02-12T12:37:27.221Z,78.75
2023-02-12T12:38:27.184Z,84.38
2023-02-12T12:39:27.207Z,84.38
2023-02-12T12:40:27.160Z,84.38
2023-02-12T12:41:27.158Z,78.75
2023-02-12T12:42:28.393Z,78.75
2023-02-12T12:43:27.124Z,73.12
2023-02-12T12:44:27.135Z,67.50
2023-02-12T12:45:27.092Z,67.50
2023-02-12T12:46:27.088Z,73.12
2023-02-12T12:47:30.062Z,73.12
2023-02-12T12:48:30.063Z,78.75
2023-02-12T12:49:28.662Z,73.12
2023-02-12T12:50:27.025Z,61.88
2023-02-12T12:51:27.027Z,61.88
2023-02-12T12:52:34.006Z,73.12
2023-02-12T12:53:26.990Z,73.12
2023-02-12T12:54:26.984Z,61.88
2023-02-12T12:55:26.988Z,67.50
2023-02-12T12:56:26.942Z,73.12
2023-02-12T12:57:26.929Z,73.12
2023-02-12T12:58:26.926Z,90.00
2023-02-12T12:59:26.907Z,95.62
2023-02-12T13:00:26.922Z,101.25
2023-02-12T13:01:26.932Z,106.88
2023-02-12T13:02:26.884Z,112.50
2023-02-12T13:03:26.851Z,112.50
2023-02-12T13:04:26.836Z,106.88
2023-02-12T13:05:26.822Z,106.88
2023-02-12T13:06:26.835Z,101.25